sensor_id;sensor_type;location;lat;lon;timestamp;pressure;altitude;pressure_sealevel;temperature;humidity
51067;BME280;37112;45.892;-123.962;2023-05-23T00:02:52;102421.26;;;14.48;66.51
51067;BME280;37112;45.892;-123.962;2023-05-23T00:05:26;102421.75;;;14.36;66.64
51067;BME280;37112;45.892;-123.962;2023-05-23T00:07:46;102417.45;;;14.30;66.91
51067;BME280;37112;45.892;-123.962;2023-05-23T00:10:12;102418.78;;;14.32;67.21
51067;BME280;37112;45.892;-123.962;2023-05-23T00:12:32;102420.29;;;14.34;67.46
51067;BME280;37112;45.892;-123.962;2023-05-23T00:15:05;102420.20;;;14.32;67.02
51067;BME280;37112;45.892;-123.962;2023-05-23T00:17:28;102419.07;;;14.27;67.10
51067;BME280;37112;45.892;-123.962;2023-05-23T00:19:54;102422.77;;;14.28;67.53
51067;BME280;37112;45.892;-123.962;2023-05-23T00:22:29;102422.06;;;14.30;67.01
51067;BME280;37112;45.892;-123.962;2023-05-23T00:24:47;102422.32;;;14.39;67.17
51067;BME280;37112;45.892;-123.962;2023-05-23T00:27:13;102420.20;;;14.54;67.79
51067;BME280;37112;45.892;-123.962;2023-05-23T00:29:40;102419.77;;;14.68;67.56
51067;BME280;37112;45.892;-123.962;2023-05-23T00:32:08;102419.72;;;14.75;67.04
51067;BME280;37112;45.892;-123.962;2023-05-23T00:34:29;102420.08;;;14.78;67.18
51067;BME280;37112;45.892;-123.962;2023-05-23T00:36:56;102421.39;;;14.83;67.02
51067;BME280;37112;45.892;-123.962;2023-05-23T00:39:14;102422.23;;;14.88;66.71
51067;BME280;37112;45.892;-123.962;2023-05-23T00:41:33;102424.19;;;14.97;66.53
51067;BME280;37112;45.892;-123.962;2023-05-23T00:44:00;102425.15;;;14.95;65.69
51067;BME280;37112;45.892;-123.962;2023-05-23T00:46:29;102421.15;;;14.93;65.33
51067;BME280;37112;45.892;-123.962;2023-05-23T00:48:48;102423.70;;;15.02;65.48
51067;BME280;37112;45.892;-123.962;2023-05-23T00:51:14;102421.64;;;15.09;65.14
51067;BME280;37112;45.892;-123.962;2023-05-23T00:53:35;102422.90;;;15.18;65.36
51067;BME280;37112;45.892;-123.962;2023-05-23T00:56:02;102418.75;;;15.34;65.56
51067;BME280;37112;45.892;-123.962;2023-05-23T00:58:34;102412.88;;;15.39;64.70
51067;BME280;37112;45.892;-123.962;2023-05-23T01:01:06;102406.83;;;15.53;65.69
51067;BME280;37112;45.892;-123.962;2023-05-23T01:03:41;102412.56;;;15.68;65.24
51067;BME280;37112;45.892;-123.962;2023-05-23T01:06:14;102410.24;;;15.70;64.41
51067;BME280;37112;45.892;-123.962;2023-05-23T01:08:40;102402.34;;;15.59;63.17
51067;BME280;37112;45.892;-123.962;2023-05-23T01:11:14;102407.89;;;15.42;63.32
51067;BME280;37112;45.892;-123.962;2023-05-23T01:13:42;102405.10;;;15.17;63.33
51067;BME280;37112;45.892;-123.962;2023-05-23T01:16:21;102400.89;;;15.00;64.09
51067;BME280;37112;45.892;-123.962;2023-05-23T01:18:53;102406.66;;;14.93;64.62
51067;BME280;37112;45.892;-123.962;2023-05-23T01:21:23;102401.23;;;14.82;64.72
51067;BME280;37112;45.892;-123.962;2023-05-23T01:24:25;102401.17;;;14.71;64.50
51067;BME280;37112;45.892;-123.962;2023-05-23T01:27:07;102398.93;;;14.60;65.24
51067;BME280;37112;45.892;-123.962;2023-05-23T01:29:31;102393.52;;;14.55;65.81
51067;BME280;37112;45.892;-123.962;2023-05-23T01:32:09;102389.91;;;14.50;65.38
51067;BME280;37112;45.892;-123.962;2023-05-23T01:34:37;102390.27;;;14.40;65.58
51067;BME280;37112;45.892;-123.962;2023-05-23T01:36:58;102384.36;;;14.34;66.06
51067;BME280;37112;45.892;-123.962;2023-05-23T01:39:31;102384.42;;;14.23;66.02
51067;BME280;37112;45.892;-123.962;2023-05-23T01:42:02;102382.73;;;14.15;66.09
51067;BME280;37112;45.892;-123.962;2023-05-23T01:44:30;102380.53;;;14.10;66.29
51067;BME280;37112;45.892;-123.962;2023-05-23T01:46:51;102381.54;;;14.07;66.39
51067;BME280;37112;45.892;-123.962;2023-05-23T01:49:25;102376.34;;;14.05;66.54
51067;BME280;37112;45.892;-123.962;2023-05-23T01:52:00;102372.98;;;14.04;67.00
51067;BME280;37112;45.892;-123.962;2023-05-23T01:54:28;102371.38;;;14.04;67.23
51067;BME280;37112;45.892;-123.962;2023-05-23T01:57:04;102366.44;;;14.03;67.51
51067;BME280;37112;45.892;-123.962;2023-05-23T01:59:39;102362.77;;;14.02;67.62
51067;BME280;37112;45.892;-123.962;2023-05-23T02:01:59;102362.89;;;13.99;67.58
51067;BME280;37112;45.892;-123.962;2023-05-23T02:04:29;102361.13;;;13.89;67.47
51067;BME280;37112;45.892;-123.962;2023-05-23T02:07:04;102366.27;;;13.81;67.55
51067;BME280;37112;45.892;-123.962;2023-05-23T02:09:30;102369.27;;;13.75;67.49
51067;BME280;37112;45.892;-123.962;2023-05-23T02:11:50;102369.67;;;13.71;67.58
51067;BME280;37112;45.892;-123.962;2023-05-23T02:14:11;102362.25;;;13.65;67.78
51067;BME280;37112;45.892;-123.962;2023-05-23T02:16:31;102360.14;;;13.62;67.94
51067;BME280;37112;45.892;-123.962;2023-05-23T02:19:01;102360.23;;;13.60;68.23
51067;BME280;37112;45.892;-123.962;2023-05-23T02:21:27;102357.52;;;13.54;68.17
51067;BME280;37112;45.892;-123.962;2023-05-23T02:23:55;102354.73;;;13.47;68.28
51067;BME280;37112;45.892;-123.962;2023-05-23T02:26:22;102350.41;;;13.37;68.82
51067;BME280;37112;45.892;-123.962;2023-05-23T02:28:43;102352.41;;;13.26;69.46
51067;BME280;37112;45.892;-123.962;2023-05-23T02:31:10;102349.38;;;13.16;69.23
51067;BME280;37112;45.892;-123.962;2023-05-23T02:33:41;102349.40;;;13.08;69.17
51067;BME280;37112;45.892;-123.962;2023-05-23T02:36:19;102343.89;;;13.01;69.20
51067;BME280;37112;45.892;-123.962;2023-05-23T02:38:53;102342.71;;;12.96;69.67
51067;BME280;37112;45.892;-123.962;2023-05-23T02:41:25;102342.16;;;12.93;70.13
51067;BME280;37112;45.892;-123.962;2023-05-23T02:43:59;102338.69;;;12.91;70.36
51067;BME280;37112;45.892;-123.962;2023-05-23T02:46:21;102342.21;;;12.89;70.61
51067;BME280;37112;45.892;-123.962;2023-05-23T02:48:45;102339.48;;;12.87;70.65
51067;BME280;37112;45.892;-123.962;2023-05-23T02:51:12;102337.69;;;12.87;70.80
51067;BME280;37112;45.892;-123.962;2023-05-23T02:53:38;102333.64;;;12.86;70.91
51067;BME280;37112;45.892;-123.962;2023-05-23T02:56:13;102335.99;;;12.88;70.94
51067;BME280;37112;45.892;-123.962;2023-05-23T02:58:34;102339.00;;;12.92;70.95
51067;BME280;37112;45.892;-123.962;2023-05-23T03:01:08;102337.40;;;12.96;70.99
51067;BME280;37112;45.892;-123.962;2023-05-23T03:03:43;102336.42;;;12.97;71.01
51067;BME280;37112;45.892;-123.962;2023-05-23T03:06:06;102337.24;;;12.98;71.16
51067;BME280;37112;45.892;-123.962;2023-05-23T03:08:35;102336.70;;;13.02;71.24
51067;BME280;37112;45.892;-123.962;2023-05-23T03:10:54;102335.44;;;13.02;71.21
51067;BME280;37112;45.892;-123.962;2023-05-23T03:13:21;102335.00;;;12.97;71.04
51067;BME280;37112;45.892;-123.962;2023-05-23T03:15:49;102331.29;;;12.93;70.92
51067;BME280;37112;45.892;-123.962;2023-05-23T03:18:16;102326.94;;;12.91;71.02
51067;BME280;37112;45.892;-123.962;2023-05-23T03:20:51;102324.80;;;12.88;71.13
51067;BME280;37112;45.892;-123.962;2023-05-23T03:23:26;102324.69;;;12.82;71.17
51067;BME280;37112;45.892;-123.962;2023-05-23T03:25:46;102321.30;;;12.79;71.18
51067;BME280;37112;45.892;-123.962;2023-05-23T03:28:20;102321.17;;;12.75;71.11
51067;BME280;37112;45.892;-123.962;2023-05-23T03:30:42;102322.42;;;12.75;71.12
51067;BME280;37112;45.892;-123.962;2023-05-23T03:33:04;102325.45;;;12.75;71.03
51067;BME280;37112;45.892;-123.962;2023-05-23T03:35:30;102326.23;;;12.73;70.91
51067;BME280;37112;45.892;-123.962;2023-05-23T03:38:05;102331.41;;;12.73;70.86
51067;BME280;37112;45.892;-123.962;2023-05-23T03:40:41;102328.05;;;12.69;70.88
51067;BME280;37112;45.892;-123.962;2023-05-23T03:43:10;102328.23;;;12.70;70.90
51067;BME280;37112;45.892;-123.962;2023-05-23T03:45:37;102331.79;;;12.70;70.90
51067;BME280;37112;45.892;-123.962;2023-05-23T03:47:58;102331.20;;;12.67;70.57
51067;BME280;37112;45.892;-123.962;2023-05-23T03:50:27;102326.70;;;12.65;70.71
51067;BME280;37112;45.892;-123.962;2023-05-23T03:52:49;102327.38;;;12.62;70.60
51067;BME280;37112;45.892;-123.962;2023-05-23T03:55:23;102324.56;;;12.57;70.66
51067;BME280;37112;45.892;-123.962;2023-05-23T03:58:09;102322.29;;;12.52;70.78
51067;BME280;37112;45.892;-123.962;2023-05-23T04:00:44;102323.13;;;12.47;70.86
51067;BME280;37112;45.892;-123.962;2023-05-23T04:03:20;102321.63;;;12.41;71.10
51067;BME280;37112;45.892;-123.962;2023-05-23T04:05:54;102320.86;;;12.35;71.10
51067;BME280;37112;45.892;-123.962;2023-05-23T04:08:22;102323.01;;;12.31;71.10
51067;BME280;37112;45.892;-123.962;2023-05-23T04:10:56;102321.22;;;12.28;71.03
51067;BME280;37112;45.892;-123.962;2023-05-23T04:13:30;102321.25;;;12.27;70.99
51067;BME280;37112;45.892;-123.962;2023-05-23T04:15:59;102319.48;;;12.27;71.01
51067;BME280;37112;45.892;-123.962;2023-05-23T04:18:36;102316.32;;;12.30;71.05
51067;BME280;37112;45.892;-123.962;2023-05-23T04:21:05;102315.69;;;12.32;70.84
51067;BME280;37112;45.892;-123.962;2023-05-23T04:23:32;102320.43;;;12.33;70.87
51067;BME280;37112;45.892;-123.962;2023-05-23T04:25:53;102320.47;;;12.36;70.85
51067;BME280;37112;45.892;-123.962;2023-05-23T04:28:29;102320.52;;;12.39;70.85
51067;BME280;37112;45.892;-123.962;2023-05-23T04:31:05;102316.70;;;12.40;70.69
51067;BME280;37112;45.892;-123.962;2023-05-23T04:33:31;102320.27;;;12.43;70.77
51067;BME280;37112;45.892;-123.962;2023-05-23T04:35:56;102319.29;;;12.45;70.79
51067;BME280;37112;45.892;-123.962;2023-05-23T04:38:25;102320.27;;;12.47;70.62
51067;BME280;37112;45.892;-123.962;2023-05-23T04:40:59;102317.88;;;12.48;70.45
51067;BME280;37112;45.892;-123.962;2023-05-23T04:43:52;102319.98;;;12.49;70.38
51067;BME280;37112;45.892;-123.962;2023-05-23T04:46:32;102319.12;;;12.48;70.38
51067;BME280;37112;45.892;-123.962;2023-05-23T04:49:08;102322.69;;;12.49;70.38
51067;BME280;37112;45.892;-123.962;2023-05-23T04:51:36;102319.77;;;12.46;70.29
51067;BME280;37112;45.892;-123.962;2023-05-23T04:54:22;102319.48;;;12.45;70.26
51067;BME280;37112;45.892;-123.962;2023-05-23T04:56:53;102315.91;;;12.45;70.33
51067;BME280;37112;45.892;-123.962;2023-05-23T04:59:28;102316.48;;;12.44;70.44
51067;BME280;37112;45.892;-123.962;2023-05-23T05:01:51;102317.38;;;12.44;70.35
51067;BME280;37112;45.892;-123.962;2023-05-23T05:04:08;102316.71;;;12.43;70.36
51067;BME280;37112;45.892;-123.962;2023-05-23T05:06:34;102314.55;;;12.40;70.47
51067;BME280;37112;45.892;-123.962;2023-05-23T05:09:06;102319.66;;;12.38;70.60
51067;BME280;37112;45.892;-123.962;2023-05-23T05:11:41;102319.39;;;12.36;70.69
51067;BME280;37112;45.892;-123.962;2023-05-23T05:14:15;102319.69;;;12.37;70.92
51067;BME280;37112;45.892;-123.962;2023-05-23T05:16:49;102323.44;;;12.37;70.88
51067;BME280;37112;45.892;-123.962;2023-05-23T05:19:15;102319.34;;;12.37;70.97
51067;BME280;37112;45.892;-123.962;2023-05-23T05:21:49;102318.68;;;12.36;71.05
51067;BME280;37112;45.892;-123.962;2023-05-23T05:24:10;102315.55;;;12.34;71.19
51067;BME280;37112;45.892;-123.962;2023-05-23T05:26:37;102315.96;;;12.33;71.23
51067;BME280;37112;45.892;-123.962;2023-05-23T05:29:11;102318.49;;;12.33;71.28
51067;BME280;37112;45.892;-123.962;2023-05-23T05:31:31;102322.66;;;12.32;71.44
51067;BME280;37112;45.892;-123.962;2023-05-23T05:33:51;102323.00;;;12.32;71.52
51067;BME280;37112;45.892;-123.962;2023-05-23T05:36:19;102320.38;;;12.31;71.55
51067;BME280;37112;45.892;-123.962;2023-05-23T05:38:54;102317.55;;;12.30;71.56
51067;BME280;37112;45.892;-123.962;2023-05-23T05:41:27;102317.00;;;12.26;71.64
51067;BME280;37112;45.892;-123.962;2023-05-23T05:44:02;102315.27;;;12.25;71.68
51067;BME280;37112;45.892;-123.962;2023-05-23T05:46:23;102313.83;;;12.23;71.60
51067;BME280;37112;45.892;-123.962;2023-05-23T05:48:58;102314.39;;;12.18;71.63
51067;BME280;37112;45.892;-123.962;2023-05-23T05:51:28;102310.38;;;12.17;71.80
51067;BME280;37112;45.892;-123.962;2023-05-23T05:53:48;102306.65;;;12.16;71.88
51067;BME280;37112;45.892;-123.962;2023-05-23T05:56:23;102302.98;;;12.15;71.74
51067;BME280;37112;45.892;-123.962;2023-05-23T05:59:00;102304.09;;;12.14;71.88
51067;BME280;37112;45.892;-123.962;2023-05-23T06:01:35;102302.25;;;12.16;71.91
51067;BME280;37112;45.892;-123.962;2023-05-23T06:04:11;102300.89;;;12.17;72.06
51067;BME280;37112;45.892;-123.962;2023-05-23T06:06:40;102298.98;;;12.20;72.14
51067;BME280;37112;45.892;-123.962;2023-05-23T06:09:14;102301.73;;;12.18;71.86
51067;BME280;37112;45.892;-123.962;2023-05-23T06:11:33;102300.30;;;12.15;71.24
51067;BME280;37112;45.892;-123.962;2023-05-23T06:14:02;102303.72;;;12.11;71.40
51067;BME280;37112;45.892;-123.962;2023-05-23T06:16:32;102304.79;;;12.07;71.56
51067;BME280;37112;45.892;-123.962;2023-05-23T06:19:07;102302.84;;;12.03;72.61
51067;BME280;37112;45.892;-123.962;2023-05-23T06:21:28;102301.28;;;11.98;72.70
51067;BME280;37112;45.892;-123.962;2023-05-23T06:23:51;102296.16;;;11.94;73.39
51067;BME280;37112;45.892;-123.962;2023-05-23T06:26:24;102297.61;;;11.90;73.50
51067;BME280;37112;45.892;-123.962;2023-05-23T06:28:59;102296.63;;;11.84;73.47
51067;BME280;37112;45.892;-123.962;2023-05-23T06:31:33;102295.32;;;11.81;73.65
51067;BME280;37112;45.892;-123.962;2023-05-23T06:34:07;102296.64;;;11.80;73.97
51067;BME280;37112;45.892;-123.962;2023-05-23T06:36:42;102289.89;;;11.79;73.83
51067;BME280;37112;45.892;-123.962;2023-05-23T06:39:17;102289.00;;;11.80;73.66
51067;BME280;37112;45.892;-123.962;2023-05-23T06:41:52;102288.55;;;11.78;73.45
51067;BME280;37112;45.892;-123.962;2023-05-23T06:44:26;102286.42;;;11.74;73.36
51067;BME280;37112;45.892;-123.962;2023-05-23T06:47:02;102282.58;;;11.72;73.36
51067;BME280;37112;45.892;-123.962;2023-05-23T06:49:26;102278.13;;;11.72;73.61
51067;BME280;37112;45.892;-123.962;2023-05-23T06:52:02;102277.38;;;11.73;73.63
51067;BME280;37112;45.892;-123.962;2023-05-23T06:54:38;102275.63;;;11.76;73.76
51067;BME280;37112;45.892;-123.962;2023-05-23T06:57:06;102277.44;;;11.79;73.84
51067;BME280;37112;45.892;-123.962;2023-05-23T06:59:39;102277.11;;;11.83;73.87
51067;BME280;37112;45.892;-123.962;2023-05-23T07:02:14;102270.02;;;11.86;74.02
51067;BME280;37112;45.892;-123.962;2023-05-23T07:04:49;102272.64;;;11.91;74.04
51067;BME280;37112;45.892;-123.962;2023-05-23T07:07:25;102271.05;;;11.94;73.98
51067;BME280;37112;45.892;-123.962;2023-05-23T07:09:59;102274.41;;;11.95;73.92
51067;BME280;37112;45.892;-123.962;2023-05-23T07:12:35;102271.99;;;11.93;74.01
51067;BME280;37112;45.892;-123.962;2023-05-23T07:15:11;102273.75;;;11.89;74.09
51067;BME280;37112;45.892;-123.962;2023-05-23T07:17:52;102275.14;;;11.87;74.16
51067;BME280;37112;45.892;-123.962;2023-05-23T07:20:27;102273.64;;;11.81;73.96
51067;BME280;37112;45.892;-123.962;2023-05-23T07:23:02;102270.58;;;11.73;73.97
51067;BME280;37112;45.892;-123.962;2023-05-23T07:25:36;102269.24;;;11.68;74.51
51067;BME280;37112;45.892;-123.962;2023-05-23T07:28:23;102271.59;;;11.64;74.42
51067;BME280;37112;45.892;-123.962;2023-05-23T07:30:57;102267.61;;;11.62;74.39
51067;BME280;37112;45.892;-123.962;2023-05-23T07:33:21;102269.62;;;11.61;74.57
51067;BME280;37112;45.892;-123.962;2023-05-23T07:35:57;102266.78;;;11.60;74.49
51067;BME280;37112;45.892;-123.962;2023-05-23T07:38:32;102260.16;;;11.61;74.73
51067;BME280;37112;45.892;-123.962;2023-05-23T07:40:58;102260.25;;;11.63;74.91
51067;BME280;37112;45.892;-123.962;2023-05-23T07:43:27;102258.70;;;11.62;74.76
51067;BME280;37112;45.892;-123.962;2023-05-23T07:45:59;102256.00;;;11.62;74.77
51067;BME280;37112;45.892;-123.962;2023-05-23T07:48:26;102257.11;;;11.65;74.77
51067;BME280;37112;45.892;-123.962;2023-05-23T07:51:00;102255.39;;;11.68;74.77
51067;BME280;37112;45.892;-123.962;2023-05-23T07:53:35;102250.15;;;11.69;74.95
51067;BME280;37112;45.892;-123.962;2023-05-23T07:56:12;102249.84;;;11.72;74.95
51067;BME280;37112;45.892;-123.962;2023-05-23T07:58:46;102245.48;;;11.74;74.81
51067;BME280;37112;45.892;-123.962;2023-05-23T08:01:07;102239.95;;;11.74;74.59
51067;BME280;37112;45.892;-123.962;2023-05-23T08:04:01;102240.44;;;11.75;74.47
51067;BME280;37112;45.892;-123.962;2023-05-23T08:06:25;102238.30;;;11.75;74.34
51067;BME280;37112;45.892;-123.962;2023-05-23T08:08:58;102239.27;;;11.78;74.31
51067;BME280;37112;45.892;-123.962;2023-05-23T08:11:32;102236.29;;;11.81;74.45
51067;BME280;37112;45.892;-123.962;2023-05-23T08:13:55;102236.16;;;11.83;74.41
51067;BME280;37112;45.892;-123.962;2023-05-23T08:16:35;102233.45;;;11.84;74.36
51067;BME280;37112;45.892;-123.962;2023-05-23T08:19:11;102233.44;;;11.85;74.41
51067;BME280;37112;45.892;-123.962;2023-05-23T08:21:38;102231.77;;;11.82;74.25
51067;BME280;37112;45.892;-123.962;2023-05-23T08:24:13;102226.86;;;11.81;74.29
51067;BME280;37112;45.892;-123.962;2023-05-23T08:26:49;102226.30;;;11.81;74.40
51067;BME280;37112;45.892;-123.962;2023-05-23T08:29:10;102224.65;;;11.82;74.44
51067;BME280;37112;45.892;-123.962;2023-05-23T08:31:44;102222.08;;;11.80;74.31
51067;BME280;37112;45.892;-123.962;2023-05-23T08:34:18;102221.59;;;11.79;74.21
51067;BME280;37112;45.892;-123.962;2023-05-23T08:36:52;102219.19;;;11.77;74.27
51067;BME280;37112;45.892;-123.962;2023-05-23T08:39:20;102219.99;;;11.79;74.40
51067;BME280;37112;45.892;-123.962;2023-05-23T08:42:00;102218.34;;;11.80;74.50
51067;BME280;37112;45.892;-123.962;2023-05-23T08:44:28;102220.61;;;11.81;74.45
51067;BME280;37112;45.892;-123.962;2023-05-23T08:46:55;102214.91;;;11.81;74.27
51067;BME280;37112;45.892;-123.962;2023-05-23T08:49:39;102216.41;;;11.83;74.37
51067;BME280;37112;45.892;-123.962;2023-05-23T08:52:13;102217.13;;;11.83;74.30
51067;BME280;37112;45.892;-123.962;2023-05-23T08:54:43;102219.85;;;11.82;74.37
51067;BME280;37112;45.892;-123.962;2023-05-23T08:57:07;102217.18;;;11.82;74.37
51067;BME280;37112;45.892;-123.962;2023-05-23T08:59:35;102217.80;;;11.80;74.80
51067;BME280;37112;45.892;-123.962;2023-05-23T09:02:00;102215.20;;;11.75;75.11
51067;BME280;37112;45.892;-123.962;2023-05-23T09:04:37;102214.51;;;11.67;74.93
51067;BME280;37112;45.892;-123.962;2023-05-23T09:06:59;102209.79;;;11.65;75.11
51067;BME280;37112;45.892;-123.962;2023-05-23T09:09:22;102204.23;;;11.66;75.30
51067;BME280;37112;45.892;-123.962;2023-05-23T09:11:49;102199.94;;;11.66;75.44
51067;BME280;37112;45.892;-123.962;2023-05-23T09:14:22;102196.48;;;11.68;75.51
51067;BME280;37112;45.892;-123.962;2023-05-23T09:16:51;102199.67;;;11.68;75.55
51067;BME280;37112;45.892;-123.962;2023-05-23T09:19:21;102196.95;;;11.69;75.50
51067;BME280;37112;45.892;-123.962;2023-05-23T09:21:46;102198.95;;;11.72;75.81
51067;BME280;37112;45.892;-123.962;2023-05-23T09:24:21;102199.38;;;11.74;75.91
51067;BME280;37112;45.892;-123.962;2023-05-23T09:26:51;102197.50;;;11.72;75.71
51067;BME280;37112;45.892;-123.962;2023-05-23T09:29:27;102187.63;;;11.70;75.81
51067;BME280;37112;45.892;-123.962;2023-05-23T09:32:12;102187.42;;;11.68;76.10
51067;BME280;37112;45.892;-123.962;2023-05-23T09:34:56;102186.27;;;11.62;77.16
51067;BME280;37112;45.892;-123.962;2023-05-23T09:37:24;102188.70;;;11.52;77.13
51067;BME280;37112;45.892;-123.962;2023-05-23T09:39:59;102187.14;;;11.44;77.29
51067;BME280;37112;45.892;-123.962;2023-05-23T09:42:36;102180.85;;;11.38;77.60
51067;BME280;37112;45.892;-123.962;2023-05-23T09:45:15;102182.66;;;11.33;78.84
51067;BME280;37112;45.892;-123.962;2023-05-23T09:47:55;102184.13;;;11.29;78.91
51067;BME280;37112;45.892;-123.962;2023-05-23T09:50:19;102188.84;;;11.27;78.91
51067;BME280;37112;45.892;-123.962;2023-05-23T09:52:45;102182.36;;;11.21;78.25
51067;BME280;37112;45.892;-123.962;2023-05-23T09:55:04;102183.85;;;11.20;78.24
51067;BME280;37112;45.892;-123.962;2023-05-23T09:57:27;102177.94;;;11.21;78.25
51067;BME280;37112;45.892;-123.962;2023-05-23T10:00:00;102177.12;;;11.23;78.09
51067;BME280;37112;45.892;-123.962;2023-05-23T10:05:32;102176.18;;;11.31;78.13
51067;BME280;37112;45.892;-123.962;2023-05-23T10:08:04;102177.60;;;11.31;78.67
51067;BME280;37112;45.892;-123.962;2023-05-23T10:10:34;102171.46;;;11.30;78.80
51067;BME280;37112;45.892;-123.962;2023-05-23T10:13:18;102169.80;;;11.27;79.02
51067;BME280;37112;45.892;-123.962;2023-05-23T10:15:40;102169.59;;;11.21;79.02
51067;BME280;37112;45.892;-123.962;2023-05-23T10:18:11;102168.03;;;11.16;79.04
51067;BME280;37112;45.892;-123.962;2023-05-23T10:20:38;102171.27;;;11.11;78.97
51067;BME280;37112;45.892;-123.962;2023-05-23T10:23:02;102168.36;;;11.09;79.17
51067;BME280;37112;45.892;-123.962;2023-05-23T10:25:32;102166.09;;;11.08;79.12
51067;BME280;37112;45.892;-123.962;2023-05-23T10:27:58;102163.73;;;11.09;79.15
51067;BME280;37112;45.892;-123.962;2023-05-23T10:30:36;102160.08;;;11.11;79.06
51067;BME280;37112;45.892;-123.962;2023-05-23T10:32:59;102152.36;;;11.13;79.05
51067;BME280;37112;45.892;-123.962;2023-05-23T10:35:38;102149.95;;;11.15;78.83
51067;BME280;37112;45.892;-123.962;2023-05-23T10:38:15;102148.51;;;11.15;78.74
51067;BME280;37112;45.892;-123.962;2023-05-23T10:40:57;102145.33;;;11.19;78.89
51067;BME280;37112;45.892;-123.962;2023-05-23T10:43:28;102151.70;;;11.23;78.97
51067;BME280;37112;45.892;-123.962;2023-05-23T10:45:50;102150.27;;;11.26;78.82
51067;BME280;37112;45.892;-123.962;2023-05-23T10:48:21;102150.37;;;11.28;78.78
51067;BME280;37112;45.892;-123.962;2023-05-23T10:50:41;102146.19;;;11.30;78.67
51067;BME280;37112;45.892;-123.962;2023-05-23T10:53:18;102143.94;;;11.33;78.79
51067;BME280;37112;45.892;-123.962;2023-05-23T10:55:51;102145.92;;;11.36;78.83
51067;BME280;37112;45.892;-123.962;2023-05-23T10:58:18;102147.56;;;11.39;78.98
51067;BME280;37112;45.892;-123.962;2023-05-23T11:00:41;102146.91;;;11.41;78.92
51067;BME280;37112;45.892;-123.962;2023-05-23T11:03:11;102137.44;;;11.41;78.79
51067;BME280;37112;45.892;-123.962;2023-05-23T11:05:50;102142.31;;;11.37;78.45
51067;BME280;37112;45.892;-123.962;2023-05-23T11:08:12;102141.17;;;11.34;78.50
51067;BME280;37112;45.892;-123.962;2023-05-23T11:11:02;102140.31;;;11.34;78.71
51067;BME280;37112;45.892;-123.962;2023-05-23T11:13:55;102137.16;;;11.33;78.86
51067;BME280;37112;45.892;-123.962;2023-05-23T11:16:39;102130.17;;;11.30;79.03
51067;BME280;37112;45.892;-123.962;2023-05-23T11:19:29;102133.06;;;11.30;78.95
51067;BME280;37112;45.892;-123.962;2023-05-23T11:22:03;102128.44;;;11.30;79.02
51067;BME280;37112;45.892;-123.962;2023-05-23T11:27:33;102123.34;;;11.28;79.15
51067;BME280;37112;45.892;-123.962;2023-05-23T11:30:02;102126.02;;;11.28;79.31
51067;BME280;37112;45.892;-123.962;2023-05-23T11:32:31;102126.89;;;11.28;79.32
51067;BME280;37112;45.892;-123.962;2023-05-23T11:34:54;102127.30;;;11.27;79.18
51067;BME280;37112;45.892;-123.962;2023-05-23T11:37:21;102124.36;;;11.26;79.29
51067;BME280;37112;45.892;-123.962;2023-05-23T11:39:45;102120.83;;;11.25;79.50
51067;BME280;37112;45.892;-123.962;2023-05-23T11:42:21;102116.55;;;11.25;79.46
51067;BME280;37112;45.892;-123.962;2023-05-23T11:44:55;102113.05;;;11.24;79.60
51067;BME280;37112;45.892;-123.962;2023-05-23T11:47:27;102111.05;;;11.22;79.49
51067;BME280;37112;45.892;-123.962;2023-05-23T11:49:56;102111.89;;;11.19;79.44
51067;BME280;37112;45.892;-123.962;2023-05-23T11:52:37;102110.13;;;11.18;79.76
51067;BME280;37112;45.892;-123.962;2023-05-23T11:54:56;102110.18;;;11.17;79.72
51067;BME280;37112;45.892;-123.962;2023-05-23T11:57:33;102105.83;;;11.15;79.94
51067;BME280;37112;45.892;-123.962;2023-05-23T12:00:07;102099.59;;;11.15;80.02
51067;BME280;37112;45.892;-123.962;2023-05-23T12:02:46;102103.29;;;11.17;80.16
51067;BME280;37112;45.892;-123.962;2023-05-23T12:05:14;102099.52;;;11.17;80.24
51067;BME280;37112;45.892;-123.962;2023-05-23T12:07:41;102095.11;;;11.16;80.33
51067;BME280;37112;45.892;-123.962;2023-05-23T12:10:09;102094.24;;;11.16;80.38
51067;BME280;37112;45.892;-123.962;2023-05-23T12:12:38;102087.86;;;11.15;80.42
51067;BME280;37112;45.892;-123.962;2023-05-23T12:15:14;102085.40;;;11.15;80.42
51067;BME280;37112;45.892;-123.962;2023-05-23T12:17:35;102082.39;;;11.15;80.51
51067;BME280;37112;45.892;-123.962;2023-05-23T12:20:06;102080.33;;;11.13;80.43
51067;BME280;37112;45.892;-123.962;2023-05-23T12:22:30;102076.61;;;11.13;80.58
51067;BME280;37112;45.892;-123.962;2023-05-23T12:25:07;102075.13;;;11.10;80.61
51067;BME280;37112;45.892;-123.962;2023-05-23T12:27:38;102074.98;;;11.06;80.54
51067;BME280;37112;45.892;-123.962;2023-05-23T12:30:15;102078.26;;;11.05;80.75
51067;BME280;37112;45.892;-123.962;2023-05-23T12:32:40;102075.46;;;11.03;80.87
51067;BME280;37112;45.892;-123.962;2023-05-23T12:35:07;102076.70;;;11.04;80.85
51067;BME280;37112;45.892;-123.962;2023-05-23T12:37:28;102077.44;;;11.03;80.99
51067;BME280;37112;45.892;-123.962;2023-05-23T12:39:56;102078.35;;;11.03;80.97
51067;BME280;37112;45.892;-123.962;2023-05-23T12:42:31;102076.95;;;11.02;80.97
51067;BME280;37112;45.892;-123.962;2023-05-23T12:45:18;102075.10;;;11.00;80.93